sensor_id;sensor_type;location;lat;lon;timestamp;P1;durP1;ratioP1;P2;durP2;ratioP2
33104;SDS011;19476;51.448;6.674;2023-04-22T00:01:51;4.30;;;2.30;;
33104;SDS011;19476;51.448;6.674;2023-04-22T00:04:16;4.28;;;2.28;;
33104;SDS011;19476;51.448;6.674;2023-04-22T00:06:42;5.25;;;2.95;;
33104;SDS011;19476;51.448;6.674;2023-04-22T00:09:09;5.30;;;2.80;;
33104;SDS011;19476;51.448;6.674;2023-04-22T00:11:35;4.13;;;2.53;;
33104;SDS011;19476;51.448;6.674;2023-04-22T00:14:01;4.50;;;2.55;;
33104;SDS011;19476;51.448;6.674;2023-04-22T00:16:26;5.13;;;3.20;;
33104;SDS011;19476;51.448;6.674;2023-04-22T00:18:52;5.78;;;3.13;;
33104;SDS011;19476;51.448;6.674;2023-04-22T00:21:18;5.43;;;2.88;;
33104;SDS011;19476;51.448;6.674;2023-04-22T00:23:44;5.05;;;3.45;;
33104;SDS011;19476;51.448;6.674;2023-04-22T00:26:11;5.00;;;2.90;;
33104;SDS011;19476;51.448;6.674;2023-04-22T00:28:36;5.18;;;3.42;;
33104;SDS011;19476;51.448;6.674;2023-04-22T00:31:02;5.95;;;3.20;;
33104;SDS011;19476;51.448;6.674;2023-04-22T00:33:28;5.60;;;3.00;;
33104;SDS011;19476;51.448;6.674;2023-04-22T00:35:55;5.18;;;3.03;;
33104;SDS011;19476;51.448;6.674;2023-04-22T00:38:20;5.97;;;3.25;;
33104;SDS011;19476;51.448;6.674;2023-04-22T00:40:46;5.78;;;3.35;;
33104;SDS011;19476;51.448;6.674;2023-04-22T00:43:13;5.15;;;3.20;;
33104;SDS011;19476;51.448;6.674;2023-04-22T00:45:41;5.72;;;3.35;;
33104;SDS011;19476;51.448;6.674;2023-04-22T00:48:08;5.05;;;3.00;;
33104;SDS011;19476;51.448;6.674;2023-04-22T00:50:34;5.72;;;3.20;;
33104;SDS011;19476;51.448;6.674;2023-04-22T00:52:59;5.13;;;3.20;;
33104;SDS011;19476;51.448;6.674;2023-04-22T00:55:25;5.75;;;3.40;;
33104;SDS011;19476;51.448;6.674;2023-04-22T00:57:52;5.97;;;3.20;;
33104;SDS011;19476;51.448;6.674;2023-04-22T01:00:19;5.90;;;3.60;;
33104;SDS011;19476;51.448;6.674;2023-04-22T01:02:51;7.25;;;3.85;;
33104;SDS011;19476;51.448;6.674;2023-04-22T01:05:20;6.38;;;3.60;;
33104;SDS011;19476;51.448;6.674;2023-04-22T01:07:46;8.55;;;5.00;;
33104;SDS011;19476;51.448;6.674;2023-04-22T01:10:12;8.13;;;5.22;;
33104;SDS011;19476;51.448;6.674;2023-04-22T01:12:38;8.80;;;4.97;;
33104;SDS011;19476;51.448;6.674;2023-04-22T01:15:03;6.72;;;3.97;;
33104;SDS011;19476;51.448;6.674;2023-04-22T01:17:30;6.63;;;4.22;;
33104;SDS011;19476;51.448;6.674;2023-04-22T01:19:57;9.25;;;4.82;;
33104;SDS011;19476;51.448;6.674;2023-04-22T01:22:24;7.38;;;4.35;;
33104;SDS011;19476;51.448;6.674;2023-04-22T01:24:52;10.02;;;6.00;;
33104;SDS011;19476;51.448;6.674;2023-04-22T01:27:18;11.63;;;6.53;;
33104;SDS011;19476;51.448;6.674;2023-04-22T01:29:45;8.07;;;5.40;;
33104;SDS011;19476;51.448;6.674;2023-04-22T01:32:11;8.23;;;4.65;;
33104;SDS011;19476;51.448;6.674;2023-04-22T01:34:37;8.38;;;4.70;;
33104;SDS011;19476;51.448;6.674;2023-04-22T01:37:02;7.65;;;4.72;;
33104;SDS011;19476;51.448;6.674;2023-04-22T01:39:28;6.32;;;3.63;;
33104;SDS011;19476;51.448;6.674;2023-04-22T01:41:54;5.97;;;3.90;;
33104;SDS011;19476;51.448;6.674;2023-04-22T01:44:21;5.93;;;3.38;;
33104;SDS011;19476;51.448;6.674;2023-04-22T01:46:46;6.03;;;3.65;;
33104;SDS011;19476;51.448;6.674;2023-04-22T01:49:12;6.43;;;3.55;;
33104;SDS011;19476;51.448;6.674;2023-04-22T01:51:38;7.10;;;4.00;;
33104;SDS011;19476;51.448;6.674;2023-04-22T01:54:04;6.95;;;3.97;;
33104;SDS011;19476;51.448;6.674;2023-04-22T01:56:30;6.57;;;3.58;;
33104;SDS011;19476;51.448;6.674;2023-04-22T01:58:56;5.65;;;3.65;;
33104;SDS011;19476;51.448;6.674;2023-04-22T02:01:21;6.50;;;3.47;;
33104;SDS011;19476;51.448;6.674;2023-04-22T02:03:47;5.18;;;3.25;;
33104;SDS011;19476;51.448;6.674;2023-04-22T02:06:13;6.25;;;3.70;;
33104;SDS011;19476;51.448;6.674;2023-04-22T02:08:39;5.90;;;3.30;;
33104;SDS011;19476;51.448;6.674;2023-04-22T02:11:04;6.07;;;3.50;;
33104;SDS011;19476;51.448;6.674;2023-04-22T02:13:36;5.20;;;3.10;;
33104;SDS011;19476;51.448;6.674;2023-04-22T02:16:03;5.10;;;3.47;;
33104;SDS011;19476;51.448;6.674;2023-04-22T02:18:30;6.20;;;3.03;;
33104;SDS011;19476;51.448;6.674;2023-04-22T02:20:56;7.28;;;3.40;;
33104;SDS011;19476;51.448;6.674;2023-04-22T02:23:21;5.82;;;3.00;;
33104;SDS011;19476;51.448;6.674;2023-04-22T02:25:49;5.78;;;3.00;;
33104;SDS011;19476;51.448;6.674;2023-04-22T02:28:16;4.70;;;2.80;;
33104;SDS011;19476;51.448;6.674;2023-04-22T02:30:42;4.68;;;2.53;;
33104;SDS011;19476;51.448;6.674;2023-04-22T02:33:09;4.43;;;2.60;;
33104;SDS011;19476;51.448;6.674;2023-04-22T02:35:35;4.13;;;2.45;;
33104;SDS011;19476;51.448;6.674;2023-04-22T02:38:01;5.07;;;2.90;;
33104;SDS011;19476;51.448;6.674;2023-04-22T02:40:26;4.63;;;2.65;;
33104;SDS011;19476;51.448;6.674;2023-04-22T02:42:52;5.07;;;2.72;;
33104;SDS011;19476;51.448;6.674;2023-04-22T02:45:18;3.97;;;2.33;;
33104;SDS011;19476;51.448;6.674;2023-04-22T02:47:44;3.97;;;2.35;;
33104;SDS011;19476;51.448;6.674;2023-04-22T02:50:10;5.15;;;2.03;;
33104;SDS011;19476;51.448;6.674;2023-04-22T02:52:36;3.72;;;2.13;;
33104;SDS011;19476;51.448;6.674;2023-04-22T02:55:02;3.67;;;2.28;;
33104;SDS011;19476;51.448;6.674;2023-04-22T02:57:29;3.90;;;2.25;;
33104;SDS011;19476;51.448;6.674;2023-04-22T02:59:54;3.83;;;2.20;;
33104;SDS011;19476;51.448;6.674;2023-04-22T03:02:21;4.00;;;2.00;;
33104;SDS011;19476;51.448;6.674;2023-04-22T03:04:47;4.30;;;2.30;;
33104;SDS011;19476;51.448;6.674;2023-04-22T03:07:13;4.32;;;2.10;;
33104;SDS011;19476;51.448;6.674;2023-04-22T03:09:38;3.72;;;2.33;;
33104;SDS011;19476;51.448;6.674;2023-04-22T03:12:04;3.63;;;1.98;;
33104;SDS011;19476;51.448;6.674;2023-04-22T03:14:30;4.32;;;2.33;;
33104;SDS011;19476;51.448;6.674;2023-04-22T03:16:56;4.28;;;2.40;;
33104;SDS011;19476;51.448;6.674;2023-04-22T03:19:21;3.75;;;2.25;;
33104;SDS011;19476;51.448;6.674;2023-04-22T03:21:47;5.18;;;2.33;;
33104;SDS011;19476;51.448;6.674;2023-04-22T03:24:13;5.15;;;2.50;;
33104;SDS011;19476;51.448;6.674;2023-04-22T03:26:39;4.03;;;1.95;;
33104;SDS011;19476;51.448;6.674;2023-04-22T03:29:06;4.70;;;2.40;;
33104;SDS011;19476;51.448;6.674;2023-04-22T03:31:32;4.60;;;2.22;;
33104;SDS011;19476;51.448;6.674;2023-04-22T03:33:57;3.55;;;2.28;;
33104;SDS011;19476;51.448;6.674;2023-04-22T03:36:23;4.15;;;2.20;;
33104;SDS011;19476;51.448;6.674;2023-04-22T03:38:50;3.80;;;2.10;;
33104;SDS011;19476;51.448;6.674;2023-04-22T03:41:16;3.38;;;1.85;;
33104;SDS011;19476;51.448;6.674;2023-04-22T03:43:41;3.75;;;2.08;;
33104;SDS011;19476;51.448;6.674;2023-04-22T03:46:07;3.50;;;2.03;;
33104;SDS011;19476;51.448;6.674;2023-04-22T03:48:33;4.40;;;2.20;;
33104;SDS011;19476;51.448;6.674;2023-04-22T03:51:00;4.07;;;2.20;;
33104;SDS011;19476;51.448;6.674;2023-04-22T03:53:26;3.40;;;1.90;;
33104;SDS011;19476;51.448;6.674;2023-04-22T03:55:52;3.63;;;1.95;;
33104;SDS011;19476;51.448;6.674;2023-04-22T03:58:18;3.63;;;2.03;;
33104;SDS011;19476;51.448;6.674;2023-04-22T04:00:44;4.13;;;2.15;;
33104;SDS011;19476;51.448;6.674;2023-04-22T04:03:10;3.80;;;1.70;;
33104;SDS011;19476;51.448;6.674;2023-04-22T04:05:35;4.47;;;1.90;;
33104;SDS011;19476;51.448;6.674;2023-04-22T04:08:01;2.92;;;1.88;;
33104;SDS011;19476;51.448;6.674;2023-04-22T04:10:27;3.88;;;2.00;;
33104;SDS011;19476;51.448;6.674;2023-04-22T04:12:53;4.05;;;2.10;;
33104;SDS011;19476;51.448;6.674;2023-04-22T04:15:19;4.28;;;1.88;;
33104;SDS011;19476;51.448;6.674;2023-04-22T04:17:46;3.08;;;1.90;;
33104;SDS011;19476;51.448;6.674;2023-04-22T04:20:12;4.13;;;2.10;;
33104;SDS011;19476;51.448;6.674;2023-04-22T04:22:38;3.47;;;1.95;;
33104;SDS011;19476;51.448;6.674;2023-04-22T04:25:04;3.55;;;1.90;;
33104;SDS011;19476;51.448;6.674;2023-04-22T04:27:31;2.40;;;1.70;;
33104;SDS011;19476;51.448;6.674;2023-04-22T04:29:57;4.47;;;2.13;;
33104;SDS011;19476;51.448;6.674;2023-04-22T04:32:23;3.40;;;1.90;;
33104;SDS011;19476;51.448;6.674;2023-04-22T04:34:49;2.85;;;1.75;;
33104;SDS011;19476;51.448;6.674;2023-04-22T04:37:17;3.17;;;1.63;;
33104;SDS011;19476;51.448;6.674;2023-04-22T04:39:43;3.85;;;2.03;;
33104;SDS011;19476;51.448;6.674;2023-04-22T04:42:08;3.75;;;1.90;;
33104;SDS011;19476;51.448;6.674;2023-04-22T04:44:36;3.13;;;1.70;;
33104;SDS011;19476;51.448;6.674;2023-04-22T04:47:02;4.88;;;1.50;;
33104;SDS011;19476;51.448;6.674;2023-04-22T04:49:28;3.13;;;1.98;;
33104;SDS011;19476;51.448;6.674;2023-04-22T04:51:56;2.92;;;1.63;;
33104;SDS011;19476;51.448;6.674;2023-04-22T04:54:22;3.58;;;2.15;;
33104;SDS011;19476;51.448;6.674;2023-04-22T04:56:48;4.65;;;2.22;;
33104;SDS011;19476;51.448;6.674;2023-04-22T04:59:14;3.63;;;2.10;;
33104;SDS011;19476;51.448;6.674;2023-04-22T05:01:39;2.92;;;1.85;;
33104;SDS011;19476;51.448;6.674;2023-04-22T05:04:05;2.78;;;1.60;;
33104;SDS011;19476;51.448;6.674;2023-04-22T05:06:31;5.57;;;2.47;;
33104;SDS011;19476;51.448;6.674;2023-04-22T05:08:57;3.58;;;2.00;;
33104;SDS011;19476;51.448;6.674;2023-04-22T05:11:23;3.72;;;1.55;;
33104;SDS011;19476;51.448;6.674;2023-04-22T05:13:49;2.60;;;1.48;;
33104;SDS011;19476;51.448;6.674;2023-04-22T05:16:15;3.38;;;1.75;;
33104;SDS011;19476;51.448;6.674;2023-04-22T05:18:41;3.33;;;1.80;;
33104;SDS011;19476;51.448;6.674;2023-04-22T05:21:07;3.53;;;1.73;;
33104;SDS011;19476;51.448;6.674;2023-04-22T05:23:32;2.95;;;1.67;;
33104;SDS011;19476;51.448;6.674;2023-04-22T05:25:58;3.83;;;2.05;;
33104;SDS011;19476;51.448;6.674;2023-04-22T05:28:24;2.40;;;1.52;;
33104;SDS011;19476;51.448;6.674;2023-04-22T05:30:50;4.13;;;1.90;;
33104;SDS011;19476;51.448;6.674;2023-04-22T05:33:16;2.90;;;1.80;;
33104;SDS011;19476;51.448;6.674;2023-04-22T05:35:42;2.70;;;1.48;;
33104;SDS011;19476;51.448;6.674;2023-04-22T05:38:07;4.07;;;2.30;;
33104;SDS011;19476;51.448;6.674;2023-04-22T05:40:34;4.47;;;1.60;;
33104;SDS011;19476;51.448;6.674;2023-04-22T05:43:00;3.92;;;1.85;;
33104;SDS011;19476;51.448;6.674;2023-04-22T05:45:26;3.35;;;2.00;;
33104;SDS011;19476;51.448;6.674;2023-04-22T05:47:51;2.63;;;1.75;;
33104;SDS011;19476;51.448;6.674;2023-04-22T05:50:17;3.25;;;1.90;;
33104;SDS011;19476;51.448;6.674;2023-04-22T05:52:43;2.83;;;1.63;;
33104;SDS011;19476;51.448;6.674;2023-04-22T05:55:09;4.00;;;2.08;;
33104;SDS011;19476;51.448;6.674;2023-04-22T05:57:34;3.00;;;1.70;;
33104;SDS011;19476;51.448;6.674;2023-04-22T06:00:00;4.00;;;1.83;;
33104;SDS011;19476;51.448;6.674;2023-04-22T06:02:27;2.97;;;1.70;;
33104;SDS011;19476;51.448;6.674;2023-04-22T06:04:53;4.55;;;1.95;;
33104;SDS011;19476;51.448;6.674;2023-04-22T06:07:18;3.25;;;2.00;;
33104;SDS011;19476;51.448;6.674;2023-04-22T06:09:44;2.90;;;1.85;;
33104;SDS011;19476;51.448;6.674;2023-04-22T06:12:10;3.28;;;1.60;;
33104;SDS011;19476;51.448;6.674;2023-04-22T06:14:35;2.47;;;1.50;;
33104;SDS011;19476;51.448;6.674;2023-04-22T06:17:01;3.55;;;1.65;;
33104;SDS011;19476;51.448;6.674;2023-04-22T06:19:27;18.00;;;2.92;;
33104;SDS011;19476;51.448;6.674;2023-04-22T06:21:53;8.00;;;2.10;;
33104;SDS011;19476;51.448;6.674;2023-04-22T06:24:19;16.23;;;2.67;;
33104;SDS011;19476;51.448;6.674;2023-04-22T06:26:46;6.22;;;1.77;;
33104;SDS011;19476;51.448;6.674;2023-04-22T06:29:11;4.20;;;1.88;;
33104;SDS011;19476;51.448;6.674;2023-04-22T06:31:38;3.42;;;1.73;;
33104;SDS011;19476;51.448;6.674;2023-04-22T06:34:03;3.50;;;1.40;;
33104;SDS011;19476;51.448;6.674;2023-04-22T06:36:29;4.43;;;2.00;;
33104;SDS011;19476;51.448;6.674;2023-04-22T06:38:57;3.72;;;2.00;;
33104;SDS011;19476;51.448;6.674;2023-04-22T06:41:22;4.10;;;2.13;;
33104;SDS011;19476;51.448;6.674;2023-04-22T06:43:48;6.53;;;2.35;;
33104;SDS011;19476;51.448;6.674;2023-04-22T06:46:15;3.78;;;1.92;;
33104;SDS011;19476;51.448;6.674;2023-04-22T06:48:41;2.50;;;1.50;;
33104;SDS011;19476;51.448;6.674;2023-04-22T06:51:07;1.95;;;1.30;;
33104;SDS011;19476;51.448;6.674;2023-04-22T06:53:33;1.92;;;1.20;;
33104;SDS011;19476;51.448;6.674;2023-04-22T06:55:59;2.72;;;1.60;;
33104;SDS011;19476;51.448;6.674;2023-04-22T06:58:25;2.90;;;1.25;;
33104;SDS011;19476;51.448;6.674;2023-04-22T07:00:50;2.90;;;1.40;;
33104;SDS011;19476;51.448;6.674;2023-04-22T07:03:16;2.95;;;1.50;;
33104;SDS011;19476;51.448;6.674;2023-04-22T07:05:42;4.03;;;1.70;;
33104;SDS011;19476;51.448;6.674;2023-04-22T07:08:08;2.80;;;1.50;;
33104;SDS011;19476;51.448;6.674;2023-04-22T07:10:33;2.10;;;1.40;;
33104;SDS011;19476;51.448;6.674;2023-04-22T07:12:59;3.00;;;1.50;;
33104;SDS011;19476;51.448;6.674;2023-04-22T07:15:25;2.53;;;1.48;;
33104;SDS011;19476;51.448;6.674;2023-04-22T07:17:51;3.00;;;1.48;;
33104;SDS011;19476;51.448;6.674;2023-04-22T07:20:16;3.42;;;1.50;;
33104;SDS011;19476;51.448;6.674;2023-04-22T07:22:42;4.25;;;1.52;;
33104;SDS011;19476;51.448;6.674;2023-04-22T07:25:08;4.13;;;1.75;;
33104;SDS011;19476;51.448;6.674;2023-04-22T07:27:34;5.05;;;2.17;;
33104;SDS011;19476;51.448;6.674;2023-04-22T07:30:01;4.43;;;2.17;;
33104;SDS011;19476;51.448;6.674;2023-04-22T07:32:26;3.70;;;2.17;;
33104;SDS011;19476;51.448;6.674;2023-04-22T07:34:52;4.85;;;1.83;;
33104;SDS011;19476;51.448;6.674;2023-04-22T07:37:19;3.63;;;2.10;;
33104;SDS011;19476;51.448;6.674;2023-04-22T07:39:46;3.80;;;1.90;;
33104;SDS011;19476;51.448;6.674;2023-04-22T07:42:11;4.18;;;1.73;;
33104;SDS011;19476;51.448;6.674;2023-04-22T07:44:37;4.30;;;1.80;;
33104;SDS011;19476;51.448;6.674;2023-04-22T07:47:03;4.18;;;2.05;;
33104;SDS011;19476;51.448;6.674;2023-04-22T07:49:29;2.90;;;1.70;;
33104;SDS011;19476;51.448;6.674;2023-04-22T07:51:55;5.47;;;1.80;;
33104;SDS011;19476;51.448;6.674;2023-04-22T07:54:21;3.20;;;1.83;;
33104;SDS011;19476;51.448;6.674;2023-04-22T07:56:47;4.88;;;2.15;;
33104;SDS011;19476;51.448;6.674;2023-04-22T07:59:12;5.32;;;2.30;;
33104;SDS011;19476;51.448;6.674;2023-04-22T08:01:38;4.15;;;2.45;;
33104;SDS011;19476;51.448;6.674;2023-04-22T08:04:04;5.57;;;2.40;;
33104;SDS011;19476;51.448;6.674;2023-04-22T08:06:31;4.82;;;2.53;;
33104;SDS011;19476;51.448;6.674;2023-04-22T08:08:57;6.40;;;2.60;;
33104;SDS011;19476;51.448;6.674;2023-04-22T08:11:23;5.97;;;2.60;;
33104;SDS011;19476;51.448;6.674;2023-04-22T08:13:49;6.53;;;2.58;;
33104;SDS011;19476;51.448;6.674;2023-04-22T08:16:15;4.75;;;2.10;;
33104;SDS011;19476;51.448;6.674;2023-04-22T08:18:41;4.07;;;1.90;;
33104;SDS011;19476;51.448;6.674;2023-04-22T08:21:07;3.40;;;1.75;;
33104;SDS011;19476;51.448;6.674;2023-04-22T08:23:39;2.38;;;1.35;;
33104;SDS011;19476;51.448;6.674;2023-04-22T08:26:05;2.80;;;1.73;;
33104;SDS011;19476;51.448;6.674;2023-04-22T08:28:32;1.95;;;1.20;;
33104;SDS011;19476;51.448;6.674;2023-04-22T08:30:59;2.13;;;1.30;;
33104;SDS011;19476;51.448;6.674;2023-04-22T08:33:25;2.70;;;1.40;;
33104;SDS011;19476;51.448;6.674;2023-04-22T08:35:51;3.55;;;1.38;;
33104;SDS011;19476;51.448;6.674;2023-04-22T08:38:17;3.40;;;1.50;;
33104;SDS011;19476;51.448;6.674;2023-04-22T08:40:43;3.08;;;1.55;;
33104;SDS011;19476;51.448;6.674;2023-04-22T08:43:10;2.78;;;1.42;;
33104;SDS011;19476;51.448;6.674;2023-04-22T08:45:37;3.47;;;1.60;;
33104;SDS011;19476;51.448;6.674;2023-04-22T08:48:05;2.00;;;1.35;;
33104;SDS011;19476;51.448;6.674;2023-04-22T08:50:33;2.85;;;1.42;;
33104;SDS011;19476;51.448;6.674;2023-04-22T08:53:03;3.25;;;1.40;;
33104;SDS011;19476;51.448;6.674;2023-04-22T08:55:29;2.53;;;1.40;;
33104;SDS011;19476;51.448;6.674;2023-04-22T08:57:55;2.88;;;1.50;;
33104;SDS011;19476;51.448;6.674;2023-04-22T09:00:24;2.17;;;1.35;;
33104;SDS011;19476;51.448;6.674;2023-04-22T09:02:50;1.90;;;1.30;;
33104;SDS011;19476;51.448;6.674;2023-04-22T09:05:17;3.47;;;1.90;;
33104;SDS011;19476;51.448;6.674;2023-04-22T09:07:46;2.17;;;1.17;;
33104;SDS011;19476;51.448;6.674;2023-04-22T09:10:12;3.05;;;1.77;;
33104;SDS011;19476;51.448;6.674;2023-04-22T09:12:39;5.63;;;1.70;;
33104;SDS011;19476;51.448;6.674;2023-04-22T09:15:06;2.63;;;1.30;;
33104;SDS011;19476;51.448;6.674;2023-04-22T09:17:33;4.78;;;1.67;;
33104;SDS011;19476;51.448;6.674;2023-04-22T09:20:02;2.50;;;1.77;;
33104;SDS011;19476;51.448;6.674;2023-04-22T09:22:37;2.22;;;1.45;;
33104;SDS011;19476;51.448;6.674;2023-04-22T09:27:47;3.55;;;1.70;;
33104;SDS011;19476;51.448;6.674;2023-04-22T09:30:22;2.80;;;1.30;;
33104;SDS011;19476;51.448;6.674;2023-04-22T09:32:56;2.60;;;1.38;;
33104;SDS011;19476;51.448;6.674;2023-04-22T09:35:26;2.58;;;1.33;;
33104;SDS011;19476;51.448;6.674;2023-04-22T09:38:04;4.85;;;1.98;;
33104;SDS011;19476;51.448;6.674;2023-04-22T09:40:36;3.22;;;1.90;;
33104;SDS011;19476;51.448;6.674;2023-04-22T09:43:11;4.07;;;1.30;;
33104;SDS011;19476;51.448;6.674;2023-04-22T09:45:42;4.22;;;1.80;;
33104;SDS011;19476;51.448;6.674;2023-04-22T09:48:16;2.72;;;1.52;;
33104;SDS011;19476;51.448;6.674;2023-04-22T09:50:43;2.75;;;1.60;;
33104;SDS011;19476;51.448;6.674;2023-04-22T09:53:12;2.40;;;1.63;;
33104;SDS011;19476;51.448;6.674;2023-04-22T09:55:42;2.30;;;1.40;;
33104;SDS011;19476;51.448;6.674;2023-04-22T09:58:11;3.13;;;1.83;;
33104;SDS011;19476;51.448;6.674;2023-04-22T10:00:42;4.05;;;2.20;;
33104;SDS011;19476;51.448;6.674;2023-04-22T10:03:13;2.95;;;1.42;;
33104;SDS011;19476;51.448;6.674;2023-04-22T10:05:39;3.28;;;2.15;;
33104;SDS011;19476;51.448;6.674;2023-04-22T10:08:12;4.10;;;2.33;;
33104;SDS011;19476;51.448;6.674;2023-04-22T10:10:40;3.65;;;2.15;;
33104;SDS011;19476;51.448;6.674;2023-04-22T10:13:09;3.75;;;2.17;;
33104;SDS011;19476;51.448;6.674;2023-04-22T10:15:39;2.65;;;1.80;;
33104;SDS011;19476;51.448;6.674;2023-04-22T10:18:13;2.58;;;1.55;;
33104;SDS011;19476;51.448;6.674;2023-04-22T10:20:48;3.70;;;2.15;;
33104;SDS011;19476;51.448;6.674;2023-04-22T10:23:19;3.40;;;1.98;;
33104;SDS011;19476;51.448;6.674;2023-04-22T10:25:53;2.47;;;1.83;;
33104;SDS011;19476;51.448;6.674;2023-04-22T10:28:24;3.00;;;1.90;;
33104;SDS011;19476;51.448;6.674;2023-04-22T10:30:53;2.30;;;1.40;;
33104;SDS011;19476;51.448;6.674;2023-04-22T10:41:39;3.45;;;2.28;;
33104;SDS011;19476;51.448;6.674;2023-04-22T10:44:08;2.40;;;1.70;;
33104;SDS011;19476;51.448;6.674;2023-04-22T10:49:22;2.42;;;1.60;;
33104;SDS011;19476;51.448;6.674;2023-04-22T10:51:50;3.45;;;1.65;;
33104;SDS011;19476;51.448;6.674;2023-04-22T10:57:07;3.13;;;1.60;;
33104;SDS011;19476;51.448;6.674;2023-04-22T10:59:53;2.47;;;1.60;;
33104;SDS011;19476;51.448;6.674;2023-04-22T11:02:22;3.83;;;1.83;;
33104;SDS011;19476;51.448;6.674;2023-04-22T11:07:40;3.22;;;1.67;;
33104;SDS011;19476;51.448;6.674;2023-04-22T11:10:07;2.65;;;1.52;;
33104;SDS011;19476;51.448;6.674;2023-04-22T11:12:40;2.17;;;1.60;;
33104;SDS011;19476;51.448;6.674;2023-04-22T11:15:11;3.38;;;1.52;;
33104;SDS011;19476;51.448;6.674;2023-04-22T11:17:47;3.72;;;1.80;;
33104;SDS011;19476;51.448;6.674;2023-04-22T11:20:16;2.60;;;1.60;;
33104;SDS011;19476;51.448;6.674;2023-04-22T11:22:44;4.55;;;1.73;;
33104;SDS011;19476;51.448;6.674;2023-04-22T11:25:14;3.15;;;1.80;;
33104;SDS011;19476;51.448;6.674;2023-04-22T11:27:40;3.03;;;1.65;;
33104;SDS011;19476;51.448;6.674;2023-04-22T11:30:16;3.42;;;1.73;;
33104;SDS011;19476;51.448;6.674;2023-04-22T11:32:45;2.40;;;1.48;;
33104;SDS011;19476;51.448;6.674;2023-04-22T11:35:19;3.30;;;1.75;;
33104;SDS011;19476;51.448;6.674;2023-04-22T11:37:57;4.07;;;1.60;;
33104;SDS011;19476;51.448;6.674;2023-04-22T11:42:55;4.13;;;1.95;;
33104;SDS011;19476;51.448;6.674;2023-04-22T11:45:23;2.58;;;1.75;;
33104;SDS011;19476;51.448;6.674;2023-04-22T11:47:50;2.53;;;1.60;;
33104;SDS011;19476;51.448;6.674;2023-04-22T11:50:17;2.45;;;1.95;;
33104;SDS011;19476;51.448;6.674;2023-04-22T11:55:16;4.43;;;1.95;;
33104;SDS011;19476;51.448;6.674;2023-04-22T11:57:49;2.80;;;1.80;;
33104;SDS011;19476;51.448;6.674;2023-04-22T12:00:25;4.97;;;1.77;;
33104;SDS011;19476;51.448;6.674;2023-04-22T12:02:58;3.70;;;1.90;;
33104;SDS011;19476;51.448;6.674;2023-04-22T12:11:15;2.67;;;1.52;;
33104;SDS011;19476;51.448;6.674;2023-04-22T12:13:43;4.75;;;1.95;;
33104;SDS011;19476;51.448;6.674;2023-04-22T12:16:17;6.03;;;1.92;;
33104;SDS011;19476;51.448;6.674;2023-04-22T12:21:21;3.40;;;1.70;;
33104;SDS011;19476;51.448;6.674;2023-04-22T12:24:01;4.10;;;2.10;;
33104;SDS011;19476;51.448;6.674;2023-04-22T12:26:38;3.25;;;1.90;;
33104;SDS011;19476;51.448;6.674;2023-04-22T12:29:08;3.50;;;2.03;;
33104;SDS011;19476;51.448;6.674;2023-04-22T12:31:34;4.13;;;2.00;;
33104;SDS011;19476;51.448;6.674;2023-04-22T12:34:02;4.82;;;1.83;;
33104;SDS011;19476;51.448;6.674;2023-04-22T12:36:29;2.85;;;1.65;;
33104;SDS011;19476;51.448;6.674;2023-04-22T12:38:58;2.83;;;1.70;;
33104;SDS011;19476;51.448;6.674;2023-04-22T12:41:28;4.00;;;2.10;;
33104;SDS011;19476;51.448;6.674;2023-04-22T12:43:54;2.50;;;1.70;;
33104;SDS011;19476;51.448;6.674;2023-04-22T12:46:26;3.72;;;1.88;;
33104;SDS011;19476;51.448;6.674;2023-04-22T12:48:52;4.30;;;2.00;;
33104;SDS011;19476;51.448;6.674;2023-04-22T12:51:20;2.60;;;1.65;;
33104;SDS011;19476;51.448;6.674;2023-04-22T12:53:46;4.10;;;2.33;;
33104;SDS011;19476;51.448;6.674;2023-04-22T12:56:12;3.65;;;1.90;;
33104;SDS011;19476;51.448;6.674;2023-04-22T12:58:38;4.03;;;2.05;;
33104;SDS011;19476;51.448;6.674;2023-04-22T13:01:04;3.78;;;2.05;;
33104;SDS011;19476;51.448;6.674;2023-04-22T13:03:30;3.55;;;2.03;;
33104;SDS011;19476;51.448;6.674;2023-04-22T13:05:56;3.28;;;2.10;;
33104;SDS011;19476;51.448;6.674;2023-04-22T13:08:22;4.15;;;2.20;;
33104;SDS011;19476;51.448;6.674;2023-04-22T13:10:48;3.72;;;2.05;;
33104;SDS011;19476;51.448;6.674;2023-04-22T13:13:14;4.68;;;2.35;;
33104;SDS011;19476;51.448;6.674;2023-04-22T13:15:40;4.63;;;2.03;;
33104;SDS011;19476;51.448;6.674;2023-04-22T13:18:09;3.97;;;1.98;;
33104;SDS011;19476;51.448;6.674;2023-04-22T13:20:35;3.90;;;2.20;;
33104;SDS011;19476;51.448;6.674;2023-04-22T13:23:01;6.22;;;2.30;;
33104;SDS011;19476;51.448;6.674;2023-04-22T13:25:31;3.22;;;2.20;;
33104;SDS011;19476;51.448;6.674;2023-04-22T13:28:01;3.90;;;2.35;;
33104;SDS011;19476;51.448;6.674;2023-04-22T13:30:32;6.95;;;2.28;;
33104;SDS011;19476;51.448;6.674;2023-04-22T13:32:58;5.13;;;2.20;;
33104;SDS011;19476;51.448;6.674;2023-04-22T13:35:27;2.08;;;1.60;;
33104;SDS011;19476;51.448;6.674;2023-04-22T13:37:56;2.92;;;1.90;;
33104;SDS011;19476;51.448;6.674;2023-04-22T13:40:23;4.47;;;1.80;;
33104;SDS011;19476;51.448;6.674;2023-04-22T13:42:51;3.38;;;1.95;;
33104;SDS011;19476;51.448;6.674;2023-04-22T13:45:17;2.97;;;1.80;;
33104;SDS011;19476;51.448;6.674;2023-04-22T13:47:43;5.68;;;1.65;;
33104;SDS011;19476;51.448;6.674;2023-04-22T13:50:09;3.60;;;2.03;;
33104;SDS011;19476;51.448;6.674;2023-04-22T13:52:36;2.63;;;1.70;;
33104;SDS011;19476;51.448;6.674;2023-04-22T13:55:05;4.15;;;1.90;;
33104;SDS011;19476;51.448;6.674;2023-04-22T13:57:32;3.20;;;1.70;;
33104;SDS011;19476;51.448;6.674;2023-04-22T13:59:58;3.38;;;2.08;;
33104;SDS011;19476;51.448;6.674;2023-04-22T14:02:26;4.22;;;2.03;;
33104;SDS011;19476;51.448;6.674;2023-04-22T14:04:55;2.63;;;1.57;;
33104;SDS011;19476;51.448;6.674;2023-04-22T14:07:23;2.78;;;1.10;;
33104;SDS011;19476;51.448;6.674;2023-04-22T14:09:49;1.48;;;1.13;;
33104;SDS011;19476;51.448;6.674;2023-04-22T14:12:15;2.63;;;1.20;;
33104;SDS011;19476;51.448;6.674;2023-04-22T14:14:41;1.50;;;1.02;;
33104;SDS011;19476;51.448;6.674;2023-04-22T14:17:07;1.90;;;0.73;;
33104;SDS011;19476;51.448;6.674;2023-04-22T14:25:52;1.40;;;1.00;;
33104;SDS011;19476;51.448;6.674;2023-04-22T14:28:18;2.28;;;1.35;;
33104;SDS011;19476;51.448;6.674;2023-04-22T14:30:48;1.47;;;1.00;;
33104;SDS011;19476;51.448;6.674;2023-04-22T14:33:14;2.58;;;1.30;;
33104;SDS011;19476;51.448;6.674;2023-04-22T14:35:41;2.53;;;1.42;;
33104;SDS011;19476;51.448;6.674;2023-04-22T14:38:08;3.55;;;1.25;;
33104;SDS011;19476;51.448;6.674;2023-04-22T14:40:35;1.58;;;1.10;;
33104;SDS011;19476;51.448;6.674;2023-04-22T14:43:02;3.70;;;1.20;;
33104;SDS011;19476;51.448;6.674;2023-04-22T14:45:32;2.58;;;1.13;;
33104;SDS011;19476;51.448;6.674;2023-04-22T14:48:00;3.67;;;1.00;;
33104;SDS011;19476;51.448;6.674;2023-04-22T14:50:26;1.25;;;0.90;;
33104;SDS011;19476;51.448;6.674;2023-04-22T14:52:52;2.40;;;1.20;;
33104;SDS011;19476;51.448;6.674;2023-04-22T14:55:19;2.28;;;1.00;;
33104;SDS011;19476;51.448;6.674;2023-04-22T14:57:46;3.70;;;1.40;;
33104;SDS011;19476;51.448;6.674;2023-04-22T15:00:13;1.90;;;1.13;;
33104;SDS011;19476;51.448;6.674;2023-04-22T15:02:39;2.17;;;0.93;;
33104;SDS011;19476;51.448;6.674;2023-04-22T15:05:05;1.35;;;1.00;;
33104;SDS011;19476;51.448;6.674;2023-04-22T15:07:31;2.33;;;1.30;;
33104;SDS011;19476;51.448;6.674;2023-04-22T15:09:57;2.42;;;1.20;;
33104;SDS011;19476;51.448;6.674;2023-04-22T15:12:24;1.80;;;1.02;;
33104;SDS011;19476;51.448;6.674;2023-04-22T15:14:50;2.55;;;1.10;;
33104;SDS011;19476;51.448;6.674;2023-04-22T15:17:17;2.17;;;1.33;;
33104;SDS011;19476;51.448;6.674;2023-04-22T15:19:44;1.85;;;1.20;;
33104;SDS011;19476;51.448;6.674;2023-04-22T15:22:10;1.95;;;1.10;;
33104;SDS011;19476;51.448;6.674;2023-04-22T15:24:36;1.38;;;1.00;;
33104;SDS011;19476;51.448;6.674;2023-04-22T15:27:02;2.47;;;1.30;;